createdAt,value
2023-03-16T00:00:22.665Z,96699.66
2023-03-16T00:02:53.607Z,96698.94
2023-03-16T00:05:21.986Z,96706.09
2023-03-16T00:07:50.547Z,96700.16
2023-03-16T00:10:27.326Z,96693.00
2023-03-16T00:12:56.538Z,96698.34
2023-03-16T00:15:24.955Z,96698.25
2023-03-16T00:17:53.262Z,96705.25
2023-03-16T00:20:22.854Z,96699.19
2023-03-16T00:22:51.210Z,96704.19
2023-03-16T00:25:20.935Z,96698.56
2023-03-16T00:27:49.455Z,96704.53
2023-03-16T00:30:18.228Z,96698.22
2023-03-16T00:32:46.601Z,96691.31
2023-03-16T00:35:14.988Z,96684.41
2023-03-16T00:37:49.336Z,96685.94
2023-03-16T00:40:18.553Z,96682.50
2023-03-16T00:42:48.234Z,96679.63
2023-03-16T00:45:16.715Z,96683.06
2023-03-16T00:47:45.195Z,96680.44
2023-03-16T00:50:13.537Z,96686.06
2023-03-16T00:52:42.204Z,96687.03
2023-03-16T00:55:11.196Z,96687.28
2023-03-16T00:57:39.567Z,96682.41
2023-03-16T01:00:13.076Z,96680.59
2023-03-16T01:02:42.143Z,96684.53
2023-03-16T01:05:11.102Z,96682.75
2023-03-16T01:07:40.021Z,96690.59
2023-03-16T01:10:10.420Z,96687.03
2023-03-16T01:12:47.239Z,96682.50
2023-03-16T01:15:17.074Z,96684.28
2023-03-16T01:17:45.385Z,96678.31
2023-03-16T01:20:19.328Z,96683.22
2023-03-16T01:22:47.730Z,96682.00
2023-03-16T01:25:16.194Z,96672.34
2023-03-16T01:27:44.598Z,96676.78
2023-03-16T01:30:13.688Z,96675.69
2023-03-16T01:32:43.632Z,96675.69
2023-03-16T01:35:12.210Z,96678.41
2023-03-16T01:37:41.392Z,96674.16
2023-03-16T01:40:12.401Z,96670.56
2023-03-16T01:42:48.976Z,96660.66
2023-03-16T01:46:10.681Z,96659.84
2023-03-16T01:48:44.839Z,96661.88
2023-03-16T01:51:17.309Z,96661.28
2023-03-16T01:53:47.777Z,96653.81
2023-03-16T01:56:23.597Z,96650.72
2023-03-16T01:58:58.634Z,96646.56
2023-03-16T02:01:28.451Z,96643.34
2023-03-16T02:04:05.758Z,96647.06
2023-03-16T02:06:36.841Z,96641.34
2023-03-16T02:09:06.775Z,96638.84
2023-03-16T02:11:36.547Z,96634.41
2023-03-16T02:14:10.498Z,96637.31
2023-03-16T02:16:39.714Z,96633.38
2023-03-16T02:19:13.447Z,96633.59
2023-03-16T02:21:54.393Z,96632.06
2023-03-16T02:24:23.284Z,96632.44
2023-03-16T02:26:56.345Z,96644.69
2023-03-16T02:29:37.807Z,96638.28
2023-03-16T02:32:07.848Z,96639.94
2023-03-16T02:34:36.539Z,96630.66
2023-03-16T02:37:06.504Z,96638.00
2023-03-16T02:39:35.498Z,96634.31
2023-03-16T02:42:04.007Z,96636.81
2023-03-16T02:44:35.007Z,96647.28
2023-03-16T02:47:07.229Z,96642.88
2023-03-16T02:49:39.711Z,96653.34
2023-03-16T02:52:09.702Z,96648.25
2023-03-16T02:54:38.267Z,96651.00
2023-03-16T02:57:06.724Z,96654.56
2023-03-16T02:59:37.696Z,96652.19
2023-03-16T03:02:06.152Z,96654.81
2023-03-16T03:04:35.854Z,96656.59
2023-03-16T03:07:05.482Z,96645.28
2023-03-16T03:09:34.094Z,96654.00
2023-03-16T03:12:02.510Z,96658.38
2023-03-16T03:14:30.876Z,96650.41
2023-03-16T03:17:04.227Z,96666.34
2023-03-16T03:19:33.786Z,96659.56
2023-03-16T03:22:06.344Z,96658.75
2023-03-16T03:24:35.672Z,96647.66
2023-03-16T03:27:05.788Z,96646.97
2023-03-16T03:29:35.448Z,96642.66
2023-03-16T03:32:04.923Z,96648.16
2023-03-16T03:34:33.994Z,96645.53
2023-03-16T03:37:03.915Z,96644.72
2023-03-16T03:39:32.400Z,96648.38
2023-03-16T03:42:03.055Z,96646.63
2023-03-16T03:44:34.627Z,96644.13
2023-03-16T03:47:04.074Z,96651.59
2023-03-16T03:49:32.746Z,96649.13
2023-03-16T03:52:04.725Z,96648.72
2023-03-16T03:54:34.647Z,96654.06
2023-03-16T03:57:03.208Z,96647.09
2023-03-16T03:59:32.807Z,96646.38
2023-03-16T04:02:01.270Z,96650.88
2023-03-16T04:04:29.712Z,96651.09
2023-03-16T04:06:58.090Z,96655.53
2023-03-16T04:09:26.490Z,96653.22
2023-03-16T04:11:57.545Z,96644.06
2023-03-16T04:14:26.034Z,96640.75
2023-03-16T04:16:55.024Z,96645.03
2023-03-16T04:19:24.204Z,96637.91
2023-03-16T04:21:52.946Z,96639.81
2023-03-16T04:24:22.462Z,96636.59
2023-03-16T04:26:51.001Z,96635.66
2023-03-16T04:29:21.044Z,96634.47
2023-03-16T04:31:49.485Z,96639.69
2023-03-16T04:34:17.791Z,96641.81
2023-03-16T04:36:46.120Z,96638.59
2023-03-16T04:39:14.672Z,96642.88
2023-03-16T04:41:43.056Z,96638.97
2023-03-16T04:44:11.434Z,96636.56
2023-03-16T04:46:41.369Z,96628.97
2023-03-16T04:49:10.220Z,96627.28
2023-03-16T04:51:40.652Z,96636.31
2023-03-16T04:54:09.360Z,96637.59
2023-03-16T04:56:41.399Z,96649.13
2023-03-16T04:59:10.729Z,96653.41
2023-03-16T05:01:39.283Z,96650.69
2023-03-16T05:04:11.575Z,96652.69
2023-03-16T05:06:41.600Z,96657.09
2023-03-16T05:09:10.181Z,96646.72
2023-03-16T05:11:39.036Z,96645.81
2023-03-16T05:14:07.517Z,96636.53
2023-03-16T05:16:35.892Z,96641.03
2023-03-16T05:19:04.378Z,96635.06
2023-03-16T05:21:34.325Z,96639.34
2023-03-16T05:24:02.741Z,96634.13
2023-03-16T05:26:31.480Z,96634.94
2023-03-16T05:28:59.800Z,96638.03
2023-03-16T05:31:32.589Z,96641.34
2023-03-16T05:34:02.372Z,96637.69
2023-03-16T05:36:30.922Z,96639.13
2023-03-16T05:39:01.086Z,96633.66
2023-03-16T05:41:30.169Z,96636.06
2023-03-16T05:43:58.684Z,96629.97
2023-03-16T05:46:27.081Z,96627.25
2023-03-16T05:48:55.460Z,96633.09
2023-03-16T05:51:26.492Z,96641.53
2023-03-16T05:53:56.711Z,96634.41
2023-03-16T05:56:28.089Z,96622.06
2023-03-16T05:58:57.072Z,96623.75
2023-03-16T06:01:25.461Z,96626.09
2023-03-16T06:03:54.936Z,96630.41
2023-03-16T06:06:23.753Z,96629.44
2023-03-16T06:08:52.516Z,96623.16
2023-03-16T06:11:21.100Z,96628.50
2023-03-16T06:13:50.977Z,96625.88
2023-03-16T06:16:19.369Z,96626.81
2023-03-16T06:18:47.768Z,96625.88
2023-03-16T06:21:16.155Z,96627.66
2023-03-16T06:23:44.485Z,96623.25
2023-03-16T06:26:13.362Z,96615.41
2023-03-16T06:28:42.587Z,96621.47
2023-03-16T06:31:12.437Z,96618.84
2023-03-16T06:33:41.532Z,96634.06
2023-03-16T06:36:10.123Z,96631.25
2023-03-16T06:38:38.535Z,96626.47
2023-03-16T06:41:07.038Z,96632.19
2023-03-16T06:43:35.532Z,96626.38
2023-03-16T06:46:04.421Z,96626.25
2023-03-16T06:48:34.286Z,96624.59
2023-03-16T06:51:02.783Z,96628.88
2023-03-16T06:53:31.173Z,96623.41
2023-03-16T06:55:59.577Z,96625.88
2023-03-16T06:58:28.286Z,96628.50
2023-03-16T07:00:56.699Z,96625.66
2023-03-16T07:03:25.121Z,96630.69
2023-03-16T07:05:55.178Z,96630.19
2023-03-16T07:08:23.582Z,96631.50
2023-03-16T07:10:52.259Z,96635.78
2023-03-16T07:13:20.648Z,96639.09
2023-03-16T07:15:52.206Z,96639.00
2023-03-16T07:18:21.169Z,96627.44
2023-03-16T07:20:49.583Z,96633.28
2023-03-16T07:23:19.620Z,96636.25
2023-03-16T07:25:48.054Z,96633.88
2023-03-16T07:28:16.443Z,96634.91
2023-03-16T07:31:02.563Z,96629.94
2023-03-16T07:33:33.294Z,96633.72
2023-03-16T07:36:04.241Z,96627.31
2023-03-16T07:38:34.731Z,96626.09
2023-03-16T07:41:03.136Z,96626.09
2023-03-16T07:43:31.640Z,96628.56
2023-03-16T07:46:00.141Z,96628.09
2023-03-16T07:48:28.932Z,96623.78
2023-03-16T07:50:57.321Z,96629.09
2023-03-16T07:53:25.767Z,96623.84
2023-03-16T07:55:55.614Z,96625.44
2023-03-16T07:58:24.018Z,96627.78
2023-03-16T08:00:52.357Z,96631.72
2023-03-16T08:03:20.805Z,96635.16
2023-03-16T08:05:49.218Z,96639.88
2023-03-16T08:08:17.635Z,96640.59
2023-03-16T08:10:49.041Z,96639.25
2023-03-16T08:13:19.112Z,96638.59
2023-03-16T08:15:48.792Z,96645.94
2023-03-16T08:18:17.160Z,96644.84
2023-03-16T08:20:45.666Z,96651.91
2023-03-16T08:23:15.547Z,96638.19
2023-03-16T08:25:44.657Z,96645.38
2023-03-16T08:28:13.049Z,96648.25
2023-03-16T08:30:48.142Z,96648.41
2023-03-16T08:33:17.996Z,96644.66
2023-03-16T08:35:46.670Z,96641.06
2023-03-16T08:38:17.045Z,96647.28
2023-03-16T08:40:48.590Z,96653.25
2023-03-16T08:43:17.420Z,96652.16
2023-03-16T08:45:48.477Z,96651.78
2023-03-16T08:48:16.932Z,96652.19
2023-03-16T08:50:46.161Z,96648.81
2023-03-16T08:53:15.676Z,96648.72
2023-03-16T08:55:44.181Z,96655.63
2023-03-16T08:58:14.080Z,96648.31
2023-03-16T09:00:43.884Z,96649.13
2023-03-16T09:03:15.475Z,96653.09
2023-03-16T09:05:43.894Z,96653.34
2023-03-16T09:08:12.699Z,96647.66
2023-03-16T09:10:41.735Z,96654.66
2023-03-16T09:13:10.270Z,96645.44
2023-03-16T09:15:38.998Z,96649.97
2023-03-16T09:18:07.523Z,96648.63
2023-03-16T09:20:37.919Z,96642.88
2023-03-16T09:23:06.443Z,96643.03
2023-03-16T09:25:34.952Z,96638.31
2023-03-16T09:28:03.355Z,96641.50
2023-03-16T09:30:32.469Z,96644.91
2023-03-16T09:33:01.329Z,96641.72
2023-03-16T09:35:30.346Z,96637.63
2023-03-16T09:38:07.344Z,96633.34
2023-03-16T09:40:38.345Z,96633.53
2023-03-16T09:43:29.165Z,96634.34
2023-03-16T09:46:05.530Z,96627.41
2023-03-16T09:48:36.862Z,96626.03
2023-03-16T09:51:08.813Z,96626.47
2023-03-16T09:53:40.121Z,96623.81
2023-03-16T09:56:13.643Z,96628.78
2023-03-16T09:58:42.139Z,96625.00
2023-03-16T10:01:19.042Z,96620.00
2023-03-16T10:04:03.420Z,96634.41
2023-03-16T10:06:33.153Z,96624.38
2023-03-16T10:09:28.991Z,96618.81
2023-03-16T10:11:59.565Z,96620.94
2023-03-16T10:14:34.609Z,96610.81
2023-03-16T10:17:08.242Z,96611.16
2023-03-16T10:19:42.807Z,96608.97
2023-03-16T10:22:20.546Z,96607.03
2023-03-16T10:25:02.425Z,96599.63
2023-03-16T10:27:32.315Z,96600.56
2023-03-16T10:30:02.964Z,96610.56
2023-03-16T10:32:34.655Z,96606.06
2023-03-16T10:35:08.239Z,96608.63
2023-03-16T10:37:37.481Z,96601.97
2023-03-16T10:40:12.969Z,96598.44
2023-03-16T10:42:41.632Z,96597.13
2023-03-16T10:45:24.390Z,96594.94
2023-03-16T10:47:52.769Z,96590.22
2023-03-16T10:50:25.760Z,96591.91
2023-03-16T10:52:58.240Z,96587.50
2023-03-16T10:55:32.675Z,96584.59
2023-03-16T10:58:02.069Z,96586.06
2023-03-16T11:00:36.261Z,96588.84
2023-03-16T11:03:23.179Z,96583.28
2023-03-16T11:05:58.742Z,96568.28
2023-03-16T11:08:29.208Z,96569.81
2023-03-16T11:11:01.148Z,96565.75
2023-03-16T11:13:35.333Z,96564.31
2023-03-16T11:16:13.091Z,96556.53
2023-03-16T11:18:46.240Z,96553.06
2023-03-16T11:21:19.071Z,96545.81
2023-03-16T11:23:52.183Z,96549.16
2023-03-16T11:26:28.158Z,96542.09
2023-03-16T11:29:08.886Z,96538.63
2023-03-16T11:31:43.253Z,96529.72
2023-03-16T11:34:17.878Z,96533.19
2023-03-16T11:36:53.495Z,96527.06
2023-03-16T11:39:33.007Z,96515.50
2023-03-16T11:42:20.703Z,96511.34
2023-03-16T11:44:55.501Z,96502.22
2023-03-16T11:47:36.888Z,96502.25
2023-03-16T11:50:16.343Z,96501.72
2023-03-16T11:52:57.336Z,96502.53
2023-03-16T11:55:39.733Z,96491.94
2023-03-16T11:58:29.430Z,96489.59
2023-03-16T12:01:08.621Z,96485.59
2023-03-16T12:03:47.707Z,96481.94
2023-03-16T12:06:29.786Z,96481.25
2023-03-16T12:09:13.484Z,96474.44
2023-03-16T12:11:48.144Z,96469.78
2023-03-16T12:14:24.503Z,96459.03
2023-03-16T12:17:01.076Z,96461.19
2023-03-16T12:19:42.261Z,96447.06
2023-03-16T12:22:18.770Z,96444.84
2023-03-16T12:24:48.149Z,96457.38
2023-03-16T12:27:20.267Z,96443.22
2023-03-16T12:30:03.869Z,96442.91
2023-03-16T12:32:43.111Z,96440.00
2023-03-16T12:35:29.234Z,96429.81
2023-03-16T12:38:12.342Z,96427.91
2023-03-16T12:40:49.152Z,96419.44
2023-03-16T12:43:33.029Z,96417.59
2023-03-16T12:46:09.933Z,96412.09
2023-03-16T12:48:41.709Z,96406.44
2023-03-16T12:51:10.896Z,96414.69
2023-03-16T12:53:45.121Z,96410.84
2023-03-16T12:56:16.415Z,96409.13
2023-03-16T12:58:48.552Z,96408.41
2023-03-16T13:01:21.859Z,96407.59
2023-03-16T13:03:59.607Z,96402.53
2023-03-16T13:06:36.292Z,96408.13
2023-03-16T13:09:07.385Z,96401.75
2023-03-16T13:11:47.504Z,96396.06
2023-03-16T13:14:18.689Z,96402.69
2023-03-16T13:16:53.752Z,96403.09
2023-03-16T13:19:27.704Z,96396.63
2023-03-16T13:22:04.911Z,96394.22
2023-03-16T13:24:50.924Z,96391.22
2023-03-16T13:27:24.214Z,96391.75
2023-03-16T13:29:58.210Z,96388.75
2023-03-16T13:32:33.332Z,96393.94
2023-03-16T13:35:03.643Z,96383.97
2023-03-16T13:37:35.607Z,96392.88
2023-03-16T13:40:05.419Z,96394.50
2023-03-16T13:42:34.941Z,96382.44
2023-03-16T13:45:15.240Z,96382.03
2023-03-16T13:47:46.047Z,96384.41
2023-03-16T13:50:16.028Z,96383.25
2023-03-16T13:52:51.608Z,96383.91
2023-03-16T13:55:27.285Z,96373.19
2023-03-16T13:57:55.781Z,96375.91
2023-03-16T14:00:26.410Z,96380.41
2023-03-16T14:02:58.926Z,96369.78
2023-03-16T14:05:30.329Z,96375.84
2023-03-16T14:08:01.122Z,96373.00
2023-03-16T14:10:33.375Z,96377.94
2023-03-16T14:13:25.874Z,96374.78
2023-03-16T14:15:55.514Z,96362.97
2023-03-16T14:18:34.487Z,96372.03
2023-03-16T14:21:10.066Z,96364.31
2023-03-16T14:23:41.671Z,96370.09
2023-03-16T14:26:14.044Z,96360.72
2023-03-16T14:28:54.582Z,96361.19
2023-03-16T14:31:23.057Z,96366.31
2023-03-16T14:34:02.077Z,96364.00
2023-03-16T14:36:37.941Z,96356.22
2023-03-16T14:39:14.531Z,96350.91
2023-03-16T14:41:43.517Z,96351.75
2023-03-16T14:44:21.399Z,96351.09
2023-03-16T14:46:50.669Z,96353.50
2023-03-16T14:49:25.560Z,96353.06
2023-03-16T14:51:56.689Z,96354.72
2023-03-16T14:54:26.112Z,96354.03
2023-03-16T14:56:56.083Z,96348.38
2023-03-16T14:59:25.744Z,96359.19
2023-03-16T15:01:54.750Z,96362.97
2023-03-16T15:04:29.593Z,96344.66
2023-03-16T15:06:58.661Z,96350.34
2023-03-16T15:09:37.165Z,96347.69
2023-03-16T15:12:11.993Z,96346.03
2023-03-16T15:14:58.018Z,96340.00
2023-03-16T15:17:27.069Z,96334.00
2023-03-16T15:19:57.087Z,96336.69
2023-03-16T15:22:31.666Z,96334.00
2023-03-16T15:25:04.098Z,96320.72
2023-03-16T15:27:37.369Z,96327.72
2023-03-16T15:30:16.134Z,96339.09
2023-03-16T15:32:44.624Z,96334.88
2023-03-16T15:35:14.617Z,96332.75
2023-03-16T15:37:43.202Z,96332.50
2023-03-16T15:40:21.082Z,96325.09
2023-03-16T15:42:49.912Z,96330.94
2023-03-16T15:45:21.482Z,96330.88
2023-03-16T15:47:51.021Z,96324.91
2023-03-16T15:50:24.730Z,96323.63
2023-03-16T15:52:58.614Z,96337.84
2023-03-16T15:55:34.463Z,96338.09
2023-03-16T15:58:03.702Z,96337.00
2023-03-16T16:00:34.809Z,96332.06
2023-03-16T16:03:04.728Z,96331.59
2023-03-16T16:05:34.990Z,96322.72
2023-03-16T16:08:03.619Z,96322.44
2023-03-16T16:10:32.496Z,96320.50
2023-03-16T16:13:01.985Z,96323.06
2023-03-16T16:15:34.004Z,96319.03
2023-03-16T16:18:20.863Z,96319.09
2023-03-16T16:20:51.602Z,96315.84
2023-03-16T16:23:20.089Z,96320.59
2023-03-16T16:25:49.652Z,96316.09
2023-03-16T16:28:22.068Z,96307.66
2023-03-16T16:30:51.292Z,96315.19
2023-03-16T16:33:25.104Z,96313.81
2023-03-16T16:35:57.467Z,96309.53
2023-03-16T16:38:26.614Z,96312.25
2023-03-16T16:40:58.459Z,96306.00
2023-03-16T16:43:33.380Z,96308.03
2023-03-16T16:46:04.310Z,96305.25
2023-03-16T16:48:35.061Z,96296.53
2023-03-16T16:51:07.063Z,96302.53
2023-03-16T16:53:35.557Z,96298.75
2023-03-16T16:56:04.090Z,96315.31
2023-03-16T16:58:33.183Z,96305.38
2023-03-16T17:01:02.657Z,96298.31
2023-03-16T17:03:31.445Z,96307.78
2023-03-16T17:06:00.179Z,96314.56
2023-03-16T17:08:29.973Z,96304.63
2023-03-16T17:10:58.656Z,96312.28
2023-03-16T17:13:30.751Z,96309.47
2023-03-16T17:16:00.237Z,96309.00
2023-03-16T17:18:28.673Z,96313.31
2023-03-16T17:20:57.098Z,96317.44
2023-03-16T17:23:31.231Z,96312.97
2023-03-16T17:26:03.621Z,96305.69
2023-03-16T17:28:38.715Z,96315.28
2023-03-16T17:31:07.259Z,96320.22
2023-03-16T17:33:35.730Z,96318.25
2023-03-16T17:36:04.570Z,96316.28
2023-03-16T17:38:35.133Z,96309.84
2023-03-16T17:41:04.891Z,96309.84
2023-03-16T17:43:33.657Z,96321.06
2023-03-16T17:46:05.255Z,96321.53
2023-03-16T17:48:33.701Z,96319.72
2023-03-16T17:51:02.096Z,96326.66
2023-03-16T17:53:31.836Z,96326.31
2023-03-16T17:56:01.759Z,96329.59
2023-03-16T17:58:31.587Z,96324.97
2023-03-16T18:01:00.082Z,96333.34
2023-03-16T18:03:30.720Z,96332.84
2023-03-16T18:05:59.574Z,96327.25
2023-03-16T18:08:30.510Z,96321.59
2023-03-16T18:11:02.507Z,96323.91
2023-03-16T18:13:34.681Z,96322.75
2023-03-16T18:16:04.985Z,96328.47
2023-03-16T18:18:36.637Z,96318.25
2023-03-16T18:21:05.776Z,96325.66
2023-03-16T18:23:36.895Z,96329.59
2023-03-16T18:26:08.015Z,96330.91
2023-03-16T18:28:36.475Z,96331.22
2023-03-16T18:31:06.062Z,96337.94
2023-03-16T18:33:36.424Z,96335.47
2023-03-16T18:36:07.844Z,96335.78
2023-03-16T18:38:39.360Z,96340.56
2023-03-16T18:41:17.214Z,96342.31
2023-03-16T18:43:45.955Z,96344.75
2023-03-16T18:46:23.889Z,96340.78
2023-03-16T18:48:53.581Z,96333.31
2023-03-16T18:51:23.731Z,96328.88
2023-03-16T18:53:52.672Z,96335.13
2023-03-16T18:56:24.429Z,96337.53
2023-03-16T18:58:53.671Z,96335.50
2023-03-16T19:01:27.823Z,96335.16
2023-03-16T19:03:58.181Z,96334.25
2023-03-16T19:06:30.901Z,96329.69
2023-03-16T19:09:05.252Z,96336.72
2023-03-16T19:11:41.915Z,96338.09
2023-03-16T19:14:16.539Z,96333.72
2023-03-16T19:16:45.272Z,96337.41
2023-03-16T19:19:15.196Z,96336.06
2023-03-16T19:21:44.703Z,96330.41
2023-03-16T19:24:23.485Z,96325.59
2023-03-16T19:26:53.522Z,96327.00
2023-03-16T19:29:29.205Z,96327.16
2023-03-16T19:31:58.786Z,96330.91
2023-03-16T19:34:27.729Z,96326.53
2023-03-16T19:36:56.275Z,96321.88
2023-03-16T19:39:25.577Z,96315.78
2023-03-16T19:41:58.933Z,96322.03
2023-03-16T19:44:29.373Z,96327.13
2023-03-16T19:46:59.149Z,96329.19
2023-03-16T19:49:29.378Z,96324.97
2023-03-16T19:51:58.011Z,96335.50
2023-03-16T19:54:29.319Z,96321.34
2023-03-16T19:57:03.976Z,96323.63
2023-03-16T19:59:35.756Z,96323.00
2023-03-16T20:02:13.697Z,96319.69
2023-03-16T20:04:42.321Z,96328.19
2023-03-16T20:07:17.075Z,96322.06
2023-03-16T20:09:46.027Z,96316.28
2023-03-16T20:12:22.620Z,96307.28
2023-03-16T20:14:52.333Z,96307.69
2023-03-16T20:17:23.489Z,96311.00
2023-03-16T20:19:53.030Z,96309.56
2023-03-16T20:22:23.886Z,96312.34
2023-03-16T20:24:54.441Z,96316.03
2023-03-16T20:27:25.558Z,96311.63
2023-03-16T20:29:54.058Z,96306.28
2023-03-16T20:32:25.143Z,96318.91
2023-03-16T20:34:54.084Z,96320.03
2023-03-16T20:37:24.822Z,96318.53
2023-03-16T20:39:54.404Z,96320.47
2023-03-16T20:42:28.980Z,96316.50
2023-03-16T20:44:57.545Z,96299.25
2023-03-16T20:47:26.891Z,96312.34
2023-03-16T20:49:58.296Z,96311.63
2023-03-16T20:52:30.821Z,96316.34
2023-03-16T20:54:59.715Z,96315.94
2023-03-16T20:57:30.165Z,96319.00
2023-03-16T20:59:59.997Z,96320.09
2023-03-16T21:02:30.666Z,96320.81
2023-03-16T21:05:01.072Z,96317.91
2023-03-16T21:07:29.553Z,96309.09
2023-03-16T21:09:58.358Z,96306.19
2023-03-16T21:12:31.967Z,96303.41
2023-03-16T21:15:09.733Z,96295.69
2023-03-16T21:17:40.128Z,96300.66
2023-03-16T21:20:17.081Z,96295.81
2023-03-16T21:22:48.094Z,96300.81
2023-03-16T21:25:20.673Z,96302.19
2023-03-16T21:27:51.479Z,96296.25
2023-03-16T21:30:26.841Z,96301.34
2023-03-16T21:32:56.104Z,96301.47
2023-03-16T21:35:32.118Z,96300.09
2023-03-16T21:38:01.869Z,96294.84
2023-03-16T21:40:30.588Z,96291.78
2023-03-16T21:43:00.484Z,96296.91
2023-03-16T21:45:29.310Z,96295.09
2023-03-16T21:48:01.023Z,96295.13
2023-03-16T21:50:33.502Z,96286.69
2023-03-16T21:53:02.376Z,96291.94
2023-03-16T21:55:31.793Z,96289.59
2023-03-16T21:58:02.777Z,96285.59
2023-03-16T22:00:33.205Z,96285.06
2023-03-16T22:03:03.358Z,96286.13
2023-03-16T22:05:37.623Z,96284.38
2023-03-16T22:08:16.050Z,96274.41
2023-03-16T22:10:44.485Z,96283.00
2023-03-16T22:13:14.230Z,96278.69
2023-03-16T22:15:43.647Z,96274.13
2023-03-16T22:18:26.306Z,96273.88
2023-03-16T22:20:55.880Z,96277.06
2023-03-16T22:23:34.124Z,96262.41
2023-03-16T22:26:03.231Z,96273.88
2023-03-16T22:28:33.884Z,96266.97
2023-03-16T22:31:04.873Z,96258.53
2023-03-16T22:33:35.716Z,96257.72
2023-03-16T22:36:08.383Z,96264.34
2023-03-16T22:38:37.387Z,96253.59
2023-03-16T22:41:06.713Z,96254.66
2023-03-16T22:43:39.365Z,96261.84
2023-03-16T22:46:07.775Z,96258.97
2023-03-16T22:48:36.184Z,96264.06
2023-03-16T22:51:05.874Z,96254.66
2023-03-16T22:53:39.055Z,96250.38
2023-03-16T22:56:10.182Z,96251.06
2023-03-16T22:58:42.437Z,96255.19
2023-03-16T23:01:17.293Z,96261.13
2023-03-16T23:03:47.416Z,96261.69
2023-03-16T23:06:18.279Z,96270.06
2023-03-16T23:08:46.890Z,96262.03
2023-03-16T23:11:20.190Z,96265.44
2023-03-16T23:13:49.942Z,96263.09
2023-03-16T23:16:22.111Z,96261.50
2023-03-16T23:18:51.281Z,96262.59
2023-03-16T23:21:22.726Z,96253.25
2023-03-16T23:24:03.058Z,96241.94
2023-03-16T23:26:33.167Z,96248.31
2023-03-16T23:29:02.958Z,96257.94
2023-03-16T23:31:31.548Z,96255.06
2023-03-16T23:34:00.720Z,96247.06
2023-03-16T23:36:29.103Z,96253.53
2023-03-16T23:38:58.782Z,96252.13
2023-03-16T23:41:27.515Z,96251.88
2023-03-16T23:43:56.102Z,96254.63
2023-03-16T23:46:29.244Z,96262.09
2023-03-16T23:49:00.764Z,96260.16
2023-03-16T23:51:32.109Z,96260.84
2023-03-16T23:54:00.521Z,96257.09
2023-03-16T23:56:28.943Z,96260.66
2023-03-16T23:58:57.932Z,96257.63
